createdAt,value
2018-11-06T00:01:12.166Z,107.53
2018-11-06T00:03:47.450Z,95.57
2018-11-06T00:06:16.898Z,82.30
2018-11-06T00:08:45.798Z,72.77
2018-11-06T00:11:14.772Z,68.57
2018-11-06T00:13:43.776Z,53.40
2018-11-06T00:16:13.172Z,63.20
2018-11-06T00:18:42.045Z,70.47
2018-11-06T00:21:10.999Z,74.70
2018-11-06T00:23:40.207Z,136.53
2018-11-06T00:26:09.145Z,57.30
2018-11-06T00:28:38.215Z,54.70
2018-11-06T00:31:07.508Z,68.00
2018-11-06T00:33:36.364Z,105.97
2018-11-06T00:36:06.174Z,60.77
2018-11-06T00:38:35.443Z,56.67
2018-11-06T00:41:04.519Z,57.80
2018-11-06T00:43:33.392Z,72.47
2018-11-06T00:46:03.342Z,69.93
2018-11-06T00:48:32.275Z,54.53
2018-11-06T00:51:01.177Z,67.57
2018-11-06T00:53:30.618Z,63.90
2018-11-06T00:55:59.506Z,99.93
2018-11-06T00:58:34.175Z,65.40
2018-11-06T01:01:03.121Z,55.70
2018-11-06T01:03:37.181Z,70.60
2018-11-06T01:06:06.428Z,66.27
2018-11-06T01:08:35.351Z,142.50
2018-11-06T01:11:04.243Z,120.20
2018-11-06T01:13:38.712Z,107.80
2018-11-06T01:16:07.697Z,147.53
2018-11-06T01:18:36.559Z,151.37
2018-11-06T01:21:05.966Z,208.47
2018-11-06T01:26:08.211Z,208.23
2018-11-06T01:28:37.400Z,215.53
2018-11-06T01:31:06.312Z,211.77
2018-11-06T01:33:35.190Z,302.43
2018-11-06T01:36:05.348Z,234.23
2018-11-06T01:38:34.521Z,261.43
2018-11-06T01:41:03.571Z,234.77
2018-11-06T01:43:32.805Z,252.67
2018-11-06T01:46:02.471Z,219.43
2018-11-06T01:48:31.461Z,177.43
2018-11-06T01:51:00.685Z,190.90
2018-11-06T01:53:29.593Z,175.47
2018-11-06T01:55:58.523Z,173.03
2018-11-06T01:58:27.931Z,192.13
2018-11-06T02:01:00.784Z,227.50
2018-11-06T02:03:29.787Z,201.50
2018-11-06T02:05:58.723Z,189.50
2018-11-06T02:08:27.612Z,121.30
2018-11-06T02:10:56.861Z,127.57
2018-11-06T02:13:25.704Z,122.93
2018-11-06T02:15:54.673Z,112.10
2018-11-06T02:18:24.583Z,98.50
2018-11-06T02:20:53.584Z,88.37
2018-11-06T02:23:22.496Z,82.60
2018-11-06T02:25:51.786Z,65.17
2018-11-06T02:28:24.192Z,84.93
2018-11-06T02:30:53.174Z,59.60
2018-11-06T02:33:28.876Z,79.17
2018-11-06T02:35:57.770Z,61.70
2018-11-06T02:38:27.204Z,57.67
2018-11-06T02:40:56.062Z,60.17
2018-11-06T02:43:24.918Z,53.93
2018-11-06T02:45:54.861Z,76.10
2018-11-06T02:48:23.750Z,60.50
2018-11-06T02:50:52.650Z,71.40
2018-11-06T02:53:21.982Z,73.20
2018-11-06T02:55:50.899Z,72.03
2018-11-06T02:58:19.822Z,64.67
2018-11-06T03:00:52.322Z,65.97
2018-11-06T03:03:21.266Z,90.37
2018-11-06T03:05:50.138Z,84.47
2018-11-06T03:08:19.647Z,97.97
2018-11-06T03:10:48.562Z,108.50
2018-11-06T03:13:17.566Z,126.50
2018-11-06T03:15:46.960Z,117.17
2018-11-06T03:18:15.961Z,112.37
2018-11-06T03:20:45.013Z,111.80
2018-11-06T03:23:14.386Z,109.87
2018-11-06T03:25:43.271Z,94.90
2018-11-06T03:28:12.208Z,98.80
2018-11-06T03:30:41.175Z,140.80
2018-11-06T03:33:10.203Z,115.17
2018-11-06T03:35:39.497Z,111.90
2018-11-06T03:38:08.415Z,115.97
2018-11-06T03:40:37.311Z,121.53
2018-11-06T03:43:06.792Z,129.87
2018-11-06T03:45:35.770Z,107.30
2018-11-06T03:48:05.789Z,137.63
2018-11-06T03:50:35.143Z,134.47
2018-11-06T03:53:04.150Z,123.00
2018-11-06T03:55:33.045Z,108.13
2018-11-06T03:58:03.564Z,115.80
2018-11-06T04:00:32.490Z,112.67
2018-11-06T04:03:01.379Z,98.30
2018-11-06T04:05:30.844Z,130.00
2018-11-06T04:07:59.832Z,117.97
2018-11-06T04:10:28.739Z,106.33
2018-11-06T04:13:00.258Z,110.53
2018-11-06T04:15:29.318Z,97.23
2018-11-06T04:17:58.282Z,104.23
2018-11-06T04:20:27.562Z,100.93
2018-11-06T04:22:56.584Z,92.23
2018-11-06T04:25:25.666Z,112.70
2018-11-06T04:27:55.082Z,120.93
2018-11-06T04:30:24.075Z,94.30
2018-11-06T04:32:53.036Z,100.57
2018-11-06T04:35:23.445Z,125.90
2018-11-06T04:37:52.373Z,110.97
2018-11-06T04:40:21.244Z,109.70
2018-11-06T04:42:50.550Z,108.53
2018-11-06T04:45:19.751Z,118.80
2018-11-06T04:47:48.712Z,127.50
2018-11-06T04:50:19.821Z,141.93
2018-11-06T04:52:48.805Z,129.87
2018-11-06T04:55:17.834Z,120.90
2018-11-06T04:57:47.237Z,166.80
2018-11-06T05:00:16.357Z,211.30
2018-11-06T05:02:45.392Z,225.67
2018-11-06T05:05:14.676Z,188.27
2018-11-06T05:07:43.591Z,179.00
2018-11-06T05:10:16.523Z,347.40
2018-11-06T05:12:45.443Z,197.17
2018-11-06T05:15:15.633Z,153.77
2018-11-06T05:17:45.021Z,114.93
2018-11-06T05:20:18.170Z,109.37
2018-11-06T05:22:47.507Z,104.47
2018-11-06T05:25:16.929Z,95.87
2018-11-06T05:27:45.966Z,123.53
2018-11-06T05:30:15.087Z,113.27
2018-11-06T05:32:44.908Z,117.33
2018-11-06T05:35:13.969Z,125.57
2018-11-06T05:37:42.889Z,86.93
2018-11-06T05:40:22.704Z,99.30
2018-11-06T05:42:51.646Z,197.80
2018-11-06T05:45:21.051Z,115.83
2018-11-06T05:47:49.908Z,132.63
2018-11-06T05:50:18.947Z,121.60
2018-11-06T05:52:53.380Z,117.90
2018-11-06T05:55:28.666Z,105.80
2018-11-06T05:57:58.019Z,108.40
2018-11-06T06:00:26.982Z,70.90
2018-11-06T06:02:55.847Z,79.40
2018-11-06T06:05:24.844Z,64.63
2018-11-06T06:07:54.052Z,75.23
2018-11-06T06:10:24.147Z,83.70
2018-11-06T06:12:53.058Z,80.67
2018-11-06T06:15:31.137Z,75.40
2018-11-06T06:18:00.617Z,95.53
2018-11-06T06:20:29.516Z,94.03
2018-11-06T06:22:58.429Z,83.63
2018-11-06T06:25:27.750Z,75.40
2018-11-06T06:28:07.178Z,94.97
2018-11-06T06:30:36.306Z,60.00
2018-11-06T06:33:05.253Z,60.27
2018-11-06T06:35:35.871Z,58.60
2018-11-06T06:38:06.411Z,62.40
2018-11-06T06:40:35.321Z,66.27
2018-11-06T06:43:04.316Z,73.60
2018-11-06T06:45:33.659Z,66.63
2018-11-06T06:48:06.493Z,60.30
2018-11-06T06:50:35.432Z,85.77
2018-11-06T06:53:04.948Z,94.77
2018-11-06T06:55:34.722Z,82.00
2018-11-06T06:58:04.486Z,81.13
2018-11-06T07:00:33.826Z,75.17
2018-11-06T07:03:02.808Z,75.93
2018-11-06T07:05:31.906Z,74.03
2018-11-06T07:08:01.289Z,73.27
2018-11-06T07:10:30.272Z,72.87
2018-11-06T07:12:59.333Z,64.17
2018-11-06T07:15:28.773Z,67.83
2018-11-06T07:17:59.261Z,53.63
2018-11-06T07:20:28.471Z,52.63
2018-11-06T07:22:57.498Z,44.83
2018-11-06T07:25:26.453Z,56.57
2018-11-06T07:27:55.789Z,43.70
2018-11-06T07:30:24.784Z,56.37
2018-11-06T07:32:53.732Z,62.77
2018-11-06T07:35:23.293Z,69.40
2018-11-06T07:37:52.160Z,61.23
2018-11-06T07:40:21.856Z,51.20
2018-11-06T07:42:51.061Z,45.20
2018-11-06T07:45:21.385Z,48.50
2018-11-06T07:47:51.589Z,55.87
2018-11-06T07:50:20.940Z,66.13
2018-11-06T07:52:49.872Z,58.73
2018-11-06T07:55:19.609Z,54.70
2018-11-06T07:57:55.132Z,60.80
2018-11-06T08:00:25.371Z,50.30
2018-11-06T08:02:54.758Z,52.73
2018-11-06T08:05:23.719Z,81.23
2018-11-06T08:07:53.090Z,56.87
2018-11-06T08:10:22.391Z,69.83
2018-11-06T08:12:53.145Z,56.60
2018-11-06T08:15:28.975Z,65.53
2018-11-06T08:17:58.297Z,56.47
2018-11-06T08:20:27.345Z,60.33
2018-11-06T08:22:56.335Z,64.63
2018-11-06T08:25:25.723Z,57.67
2018-11-06T08:27:54.922Z,69.07
2018-11-06T08:30:23.847Z,64.93
2018-11-06T08:32:53.491Z,76.60
2018-11-06T08:35:22.175Z,76.37
2018-11-06T08:37:51.151Z,82.83
2018-11-06T08:40:20.160Z,86.67
2018-11-06T08:42:49.166Z,92.90
2018-11-06T08:45:18.468Z,103.07
2018-11-06T08:47:53.232Z,108.10
2018-11-06T08:50:22.248Z,114.60
2018-11-06T08:52:51.452Z,122.17
2018-11-06T08:55:20.372Z,107.37
2018-11-06T08:57:49.261Z,114.23
2018-11-06T09:00:19.371Z,119.57
2018-11-06T09:02:49.197Z,127.00
2018-11-06T09:05:18.842Z,121.80
2018-11-06T09:07:47.933Z,140.13
2018-11-06T09:10:17.575Z,143.93
2018-11-06T09:12:46.708Z,122.50
2018-11-06T09:15:16.723Z,135.07
2018-11-06T09:17:45.813Z,132.13
2018-11-06T09:20:20.439Z,118.00
2018-11-06T09:22:49.417Z,139.13
2018-11-06T09:25:19.301Z,141.67
2018-11-06T09:27:48.475Z,117.77
2018-11-06T09:33:00.873Z,114.77
2018-11-06T09:35:33.426Z,100.97
2018-11-06T09:40:45.487Z,104.13
2018-11-06T09:43:21.027Z,94.93
2018-11-06T09:46:03.133Z,94.03
2018-11-06T09:48:34.028Z,78.50
2018-11-06T09:51:10.618Z,77.10
2018-11-06T09:56:35.021Z,84.27
2018-11-06T10:01:49.117Z,77.37
2018-11-06T10:07:07.395Z,83.33
2018-11-06T10:09:41.828Z,78.93
2018-11-06T10:12:13.010Z,90.27
2018-11-06T10:17:22.469Z,76.00
2018-11-06T10:19:53.394Z,82.33
2018-11-06T10:25:19.189Z,94.37
2018-11-06T10:27:49.560Z,94.27
2018-11-06T10:30:20.190Z,111.60
2018-11-06T10:32:51.520Z,110.37
2018-11-06T10:35:24.373Z,104.93
2018-11-06T10:40:29.720Z,93.87
2018-11-06T10:43:05.959Z,89.13
2018-11-06T10:45:43.725Z,89.90
2018-11-06T10:48:13.321Z,97.80
2018-11-06T10:50:50.926Z,99.67
2018-11-06T10:53:22.009Z,114.63
2018-11-06T10:56:06.704Z,100.93
2018-11-06T10:58:44.984Z,94.30
2018-11-06T11:01:21.258Z,124.47
2018-11-06T11:03:56.723Z,108.73
2018-11-06T11:06:28.898Z,109.57
2018-11-06T11:08:59.407Z,113.33
2018-11-06T11:11:36.369Z,111.83
2018-11-06T11:14:11.500Z,112.93
2018-11-06T11:16:45.792Z,101.80
2018-11-06T11:19:18.973Z,116.17
2018-11-06T11:21:51.904Z,115.63
2018-11-06T11:24:24.365Z,101.83
2018-11-06T11:27:01.568Z,127.60
2018-11-06T11:32:16.530Z,105.20
2018-11-06T11:34:51.929Z,101.17
2018-11-06T11:37:23.132Z,105.10
2018-11-06T11:39:54.665Z,117.63
2018-11-06T11:42:25.835Z,126.40
2018-11-06T11:44:58.851Z,124.60
2018-11-06T11:47:31.108Z,121.27
2018-11-06T11:50:03.946Z,107.10
2018-11-06T11:52:35.825Z,97.40
2018-11-06T11:55:11.190Z,94.70
2018-11-06T11:57:43.925Z,93.80
2018-11-06T12:00:18.218Z,89.63
2018-11-06T12:02:55.304Z,95.20
2018-11-06T12:05:34.459Z,97.67
2018-11-06T12:08:16.373Z,98.10
2018-11-06T12:10:48.804Z,87.50
2018-11-06T12:13:23.219Z,84.10
2018-11-06T12:15:55.025Z,91.10
2018-11-06T12:18:26.254Z,78.23
2018-11-06T12:21:00.466Z,87.33
2018-11-06T12:23:32.451Z,85.83
2018-11-06T12:26:08.463Z,93.10
2018-11-06T12:28:44.678Z,79.70
2018-11-06T12:33:53.845Z,76.33
2018-11-06T12:36:33.943Z,63.50
2018-11-06T12:39:07.766Z,67.77
2018-11-06T12:41:37.832Z,69.60
2018-11-06T12:44:17.565Z,64.37
2018-11-06T12:46:47.437Z,51.03
2018-11-06T12:49:20.609Z,67.77
2018-11-06T12:52:00.455Z,51.33
2018-11-06T12:54:30.407Z,48.43
2018-11-06T12:56:59.669Z,59.47
2018-11-06T12:59:28.559Z,54.57
2018-11-06T13:02:06.091Z,54.83
2018-11-06T13:04:35.487Z,48.03
2018-11-06T13:07:04.564Z,46.23
2018-11-06T13:09:42.216Z,44.50
2018-11-06T13:12:23.639Z,41.73
2018-11-06T13:14:52.808Z,36.07
2018-11-06T13:17:21.967Z,47.70
2018-11-06T13:19:52.708Z,49.57
2018-11-06T13:22:21.606Z,55.43
2018-11-06T13:24:53.746Z,61.13
2018-11-06T13:27:22.806Z,44.77
2018-11-06T13:29:51.925Z,55.93
2018-11-06T13:32:30.120Z,50.70
2018-11-06T13:34:59.070Z,57.47
2018-11-06T13:37:28.113Z,60.87
2018-11-06T13:39:57.442Z,50.73
2018-11-06T13:42:26.994Z,59.40
2018-11-06T13:44:56.170Z,54.30
2018-11-06T13:47:25.215Z,57.30
2018-11-06T13:49:54.239Z,53.97
2018-11-06T13:52:23.278Z,63.93
2018-11-06T13:54:52.504Z,63.37
2018-11-06T13:57:21.371Z,63.80
2018-11-06T13:59:50.432Z,77.90
2018-11-06T14:02:20.080Z,68.60
2018-11-06T14:04:49.597Z,114.63
2018-11-06T14:07:20.727Z,74.70
2018-11-06T14:09:50.036Z,67.43
2018-11-06T14:12:18.993Z,80.97
2018-11-06T14:14:47.875Z,59.53
2018-11-06T14:17:21.722Z,62.33
2018-11-06T14:19:50.637Z,56.57
2018-11-06T14:22:20.074Z,58.67
2018-11-06T14:24:49.326Z,57.67
2018-11-06T14:27:18.271Z,72.27
2018-11-06T14:29:47.683Z,53.27
2018-11-06T14:32:16.755Z,54.33
2018-11-06T14:34:46.728Z,61.00
2018-11-06T14:37:15.978Z,51.10
2018-11-06T14:39:45.149Z,45.30
2018-11-06T14:42:15.113Z,48.50
2018-11-06T14:44:47.480Z,45.77
2018-11-06T14:47:16.657Z,50.53
2018-11-06T14:49:46.784Z,47.10
2018-11-06T14:52:16.318Z,44.50
2018-11-06T14:54:45.307Z,53.47
2018-11-06T14:57:14.412Z,49.70
2018-11-06T14:59:47.574Z,53.20
2018-11-06T15:02:16.818Z,46.80
2018-11-06T15:04:46.389Z,56.73
2018-11-06T15:07:16.213Z,50.07
2018-11-06T15:09:45.144Z,47.10
2018-11-06T15:12:14.571Z,55.43
2018-11-06T15:14:43.507Z,64.63
2018-11-06T15:17:23.224Z,57.73
2018-11-06T15:19:52.806Z,71.80
2018-11-06T15:22:21.760Z,65.33
2018-11-06T15:24:50.935Z,62.47
2018-11-06T15:27:20.359Z,70.50
2018-11-06T15:32:25.110Z,62.40
2018-11-06T15:34:54.163Z,59.50
2018-11-06T15:37:32.743Z,83.97
2018-11-06T15:40:03.546Z,99.00
2018-11-06T15:42:32.638Z,68.00
2018-11-06T15:45:02.864Z,57.10
2018-11-06T15:47:35.890Z,64.20
2018-11-06T15:50:08.467Z,65.50
2018-11-06T15:52:37.695Z,55.50
2018-11-06T15:55:17.543Z,64.30
2018-11-06T15:57:46.662Z,64.20
2018-11-06T16:00:19.106Z,58.90
2018-11-06T16:02:48.575Z,62.20
2018-11-06T16:05:17.506Z,58.90
2018-11-06T16:10:27.470Z,64.73
2018-11-06T16:12:57.611Z,64.07
2018-11-06T16:15:26.806Z,73.77
2018-11-06T16:17:55.666Z,69.20
2018-11-06T16:20:24.885Z,73.93
2018-11-06T16:22:54.071Z,72.83
2018-11-06T16:25:23.137Z,69.27
2018-11-06T16:27:52.434Z,65.10
2018-11-06T16:32:56.173Z,66.70
2018-11-06T16:35:25.518Z,66.87
2018-11-06T16:37:54.694Z,69.80
2018-11-06T16:40:23.835Z,63.63
2018-11-06T16:42:53.204Z,68.73
2018-11-06T16:45:22.950Z,59.40
2018-11-06T16:47:52.750Z,65.40
2018-11-06T16:50:22.500Z,60.70
2018-11-06T16:52:51.614Z,66.07
2018-11-06T16:55:21.064Z,54.40
2018-11-06T16:57:50.441Z,57.50
2018-11-06T17:00:23.984Z,61.67
2018-11-06T17:02:53.484Z,52.47
2018-11-06T17:05:22.765Z,50.23
2018-11-06T17:10:31.342Z,53.83
2018-11-06T17:13:01.170Z,57.40
2018-11-06T17:15:33.997Z,53.13
2018-11-06T17:18:08.506Z,55.67
2018-11-06T17:20:39.115Z,56.20
2018-11-06T17:23:08.664Z,53.80
2018-11-06T17:25:47.020Z,49.47
2018-11-06T17:28:29.454Z,46.23
2018-11-06T17:30:59.957Z,48.80
2018-11-06T17:33:30.489Z,48.90
2018-11-06T17:36:00.341Z,51.37
2018-11-06T17:38:34.944Z,50.70
2018-11-06T17:41:04.468Z,54.30
2018-11-06T17:43:33.840Z,57.20
2018-11-06T17:46:05.160Z,72.60
2018-11-06T17:48:35.766Z,57.57
2018-11-06T17:51:04.820Z,58.77
2018-11-06T17:53:33.716Z,59.63
2018-11-06T17:56:14.191Z,59.60
2018-11-06T17:58:43.143Z,163.87
2018-11-06T18:01:12.530Z,62.70
2018-11-06T18:03:41.815Z,65.33
2018-11-06T18:06:10.952Z,62.50
2018-11-06T18:08:40.506Z,61.73
2018-11-06T18:11:09.730Z,64.27
2018-11-06T18:13:43.503Z,67.80
2018-11-06T18:16:12.777Z,86.17
2018-11-06T18:18:47.584Z,73.47
2018-11-06T18:21:17.808Z,66.17
2018-11-06T18:23:47.108Z,79.50
2018-11-06T18:26:16.287Z,74.83
2018-11-06T18:28:45.434Z,75.07
2018-11-06T18:31:14.930Z,72.50
2018-11-06T18:33:44.086Z,79.97
2018-11-06T18:36:13.077Z,70.83
2018-11-06T18:38:42.799Z,64.33
2018-11-06T18:41:12.395Z,66.87
2018-11-06T18:43:41.778Z,66.43
2018-11-06T18:48:31.901Z,58.00
2018-11-06T18:51:00.986Z,89.13
2018-11-06T18:53:37.406Z,64.97
2018-11-06T18:56:07.077Z,62.33
2018-11-06T18:58:36.337Z,56.87
2018-11-06T19:01:05.412Z,55.70
2018-11-06T19:03:34.900Z,59.33
2018-11-06T19:06:05.329Z,64.67
2018-11-06T19:08:35.143Z,59.00
2018-11-06T19:11:04.828Z,50.03
2018-11-06T19:13:34.433Z,60.00
2018-11-06T19:16:19.866Z,55.80
2018-11-06T19:21:29.430Z,56.70
2018-11-06T19:23:58.816Z,58.90
2018-11-06T19:26:28.182Z,55.30
2018-11-06T19:28:57.819Z,58.47
2018-11-06T19:31:27.424Z,58.57
2018-11-06T19:33:56.890Z,61.63
2018-11-06T19:36:26.548Z,59.80
2018-11-06T19:38:56.066Z,63.63
2018-11-06T19:41:25.972Z,59.67
2018-11-06T19:43:55.917Z,60.47
2018-11-06T19:46:31.259Z,63.27
2018-11-06T19:49:00.742Z,60.67
2018-11-06T19:51:30.613Z,59.80
2018-11-06T19:54:00.325Z,55.90
2018-11-06T19:56:29.962Z,62.80
2018-11-06T19:58:59.747Z,68.47
2018-11-06T20:01:29.208Z,63.53
2018-11-06T20:03:58.685Z,66.00
2018-11-06T20:07:00.027Z,67.40
2018-11-06T20:09:29.645Z,62.90
2018-11-06T20:11:59.964Z,63.57
2018-11-06T20:14:29.356Z,59.90
2018-11-06T20:16:58.919Z,58.80
2018-11-06T20:19:29.919Z,66.93
2018-11-06T20:21:59.399Z,62.00
2018-11-06T20:24:29.721Z,61.43
2018-11-06T20:27:00.776Z,61.60
2018-11-06T20:29:30.446Z,60.30
2018-11-06T20:32:00.168Z,68.17
2018-11-06T20:34:36.226Z,59.27
2018-11-06T20:37:12.840Z,62.50
2018-11-06T20:39:43.853Z,56.30
2018-11-06T20:42:13.340Z,61.47
2018-11-06T20:44:43.046Z,56.00
2018-11-06T20:47:12.916Z,57.20
2018-11-06T20:49:42.574Z,53.23
2018-11-06T20:52:12.268Z,57.87
2018-11-06T20:54:45.015Z,47.43
2018-11-06T20:57:14.385Z,52.13
2018-11-06T20:59:44.227Z,55.03
2018-11-06T21:02:14.152Z,54.73
2018-11-06T21:04:43.815Z,51.40
2018-11-06T21:07:13.745Z,47.50
2018-11-06T21:09:43.262Z,47.80
2018-11-06T21:12:19.401Z,47.87
2018-11-06T21:14:49.070Z,54.13
2018-11-06T21:19:54.996Z,53.23
2018-11-06T21:22:24.473Z,47.07
2018-11-06T21:24:54.092Z,53.90
2018-11-06T21:27:24.289Z,49.47
2018-11-06T21:29:54.081Z,56.27
2018-11-06T21:32:24.192Z,51.57
2018-11-06T21:34:54.830Z,51.43
2018-11-06T21:37:24.873Z,56.47
2018-11-06T21:39:54.920Z,50.57
2018-11-06T21:42:24.946Z,50.27
2018-11-06T21:44:54.347Z,48.23
2018-11-06T21:47:29.631Z,57.13
2018-11-06T21:49:59.599Z,51.20
2018-11-06T21:52:30.887Z,52.60
2018-11-06T21:55:00.318Z,50.73
2018-11-06T21:57:31.223Z,45.40
2018-11-06T22:00:00.811Z,46.10
2018-11-06T22:02:30.405Z,48.80
2018-11-06T22:04:59.876Z,49.83
2018-11-06T22:07:29.680Z,40.80
2018-11-06T22:09:58.876Z,45.50
2018-11-06T22:12:28.843Z,43.93
2018-11-06T22:15:02.330Z,45.60
2018-11-06T22:17:31.761Z,45.50
2018-11-06T22:20:00.932Z,47.40
2018-11-06T22:22:35.283Z,47.43
2018-11-06T22:27:45.771Z,41.70
2018-11-06T22:30:16.299Z,42.87
2018-11-06T22:32:46.818Z,40.43
2018-11-06T22:35:17.776Z,44.87
2018-11-06T22:37:49.957Z,44.57
2018-11-06T22:40:19.540Z,40.67
2018-11-06T22:42:49.581Z,39.43
2018-11-06T22:45:19.352Z,43.63
2018-11-06T22:47:48.750Z,44.80
2018-11-06T22:50:19.659Z,45.00
2018-11-06T22:52:49.521Z,47.00
2018-11-06T22:55:18.973Z,42.57
2018-11-06T22:57:49.405Z,46.47
2018-11-06T23:00:24.077Z,48.33
2018-11-06T23:02:55.474Z,41.30
2018-11-06T23:05:25.341Z,44.53
2018-11-06T23:07:59.897Z,46.67
2018-11-06T23:10:29.967Z,46.20
2018-11-06T23:13:02.441Z,38.03
2018-11-06T23:15:31.973Z,41.93
2018-11-06T23:18:04.146Z,39.53
2018-11-06T23:20:33.450Z,33.50
2018-11-06T23:23:03.260Z,38.13
2018-11-06T23:25:33.076Z,46.83
2018-11-06T23:28:03.312Z,40.87
2018-11-06T23:30:33.140Z,47.50
2018-11-06T23:33:04.188Z,43.13
2018-11-06T23:35:33.721Z,38.23
2018-11-06T23:38:04.470Z,45.47
2018-11-06T23:40:33.729Z,39.20
2018-11-06T23:43:02.971Z,38.17
2018-11-06T23:45:32.600Z,39.10
2018-11-06T23:48:03.679Z,39.97
2018-11-06T23:50:33.128Z,38.57
2018-11-06T23:53:02.816Z,43.20
2018-11-06T23:55:38.436Z,43.63
2018-11-06T23:58:08.350Z,39.73
